createdAt,value
2023-02-13T00:02:02.167Z,18.88
2023-02-13T00:04:47.539Z,21.85
2023-02-13T00:07:33.187Z,18.67
2023-02-13T00:10:18.780Z,19.23
2023-02-13T00:13:04.303Z,19.98
2023-02-13T00:15:58.992Z,20.95
2023-02-13T00:18:44.330Z,17.80
2023-02-13T00:21:29.611Z,17.10
2023-02-13T00:24:15.475Z,21.23
2023-02-13T00:27:01.068Z,23.00
2023-02-13T00:29:47.055Z,20.25
2023-02-13T00:32:32.412Z,17.95
2023-02-13T00:35:17.884Z,15.88
2023-02-13T00:38:03.180Z,20.95
2023-02-13T00:40:48.461Z,29.17
2023-02-13T00:43:34.332Z,18.48
2023-02-13T00:46:19.758Z,19.55
2023-02-13T00:49:05.729Z,22.45
2023-02-13T00:51:52.946Z,26.23
2023-02-13T00:54:40.739Z,24.27
2023-02-13T00:57:26.035Z,19.33
2023-02-13T01:00:12.086Z,24.17
2023-02-13T01:02:59.947Z,23.25
2023-02-13T01:05:45.987Z,21.25
2023-02-13T01:08:31.706Z,18.80
2023-02-13T01:11:19.127Z,16.25
2023-02-13T01:14:04.755Z,15.02
2023-02-13T01:16:50.240Z,15.13
2023-02-13T01:19:35.549Z,19.75
2023-02-13T01:22:20.811Z,18.38
2023-02-13T01:25:08.189Z,18.38
2023-02-13T01:27:53.581Z,18.88
2023-02-13T01:30:39.581Z,17.10
2023-02-13T01:33:27.365Z,20.05
2023-02-13T01:36:14.444Z,20.48
2023-02-13T01:39:00.174Z,19.52
2023-02-13T01:41:45.827Z,17.48
2023-02-13T01:44:51.868Z,18.27
2023-02-13T01:47:47.625Z,18.45
2023-02-13T01:51:02.165Z,23.00
2023-02-13T01:53:53.783Z,18.83
2023-02-13T01:56:53.877Z,16.60
2023-02-13T01:59:50.079Z,28.70
2023-02-13T02:02:41.790Z,20.38
2023-02-13T02:05:29.209Z,19.03
2023-02-13T02:08:15.708Z,15.40
2023-02-13T02:11:09.163Z,17.85
2023-02-13T02:13:54.519Z,25.67
2023-02-13T02:16:49.560Z,20.20
2023-02-13T02:19:41.760Z,31.08
2023-02-13T02:22:44.913Z,21.02
2023-02-13T02:26:04.683Z,22.08
2023-02-13T02:29:32.252Z,23.05
2023-02-13T02:32:30.355Z,22.42
2023-02-13T02:35:34.600Z,25.83
2023-02-13T02:38:48.078Z,20.45
2023-02-13T02:41:51.364Z,19.00
2023-02-13T02:45:09.628Z,19.95
2023-02-13T02:48:52.306Z,20.15
2023-02-13T02:52:05.849Z,21.27
2023-02-13T02:55:09.171Z,22.25
2023-02-13T02:58:38.529Z,13.85
2023-02-13T03:01:46.494Z,16.92
2023-02-13T03:05:02.900Z,16.80
2023-02-13T03:07:49.583Z,21.10
2023-02-13T03:10:56.883Z,23.45
2023-02-13T03:13:48.103Z,23.92
2023-02-13T03:16:52.257Z,16.65
2023-02-13T03:20:11.457Z,16.38
2023-02-13T03:23:08.932Z,17.83
2023-02-13T03:26:06.733Z,20.23
2023-02-13T03:29:21.819Z,22.38
2023-02-13T03:32:29.191Z,16.73
2023-02-13T03:36:08.627Z,15.30
2023-02-13T03:39:24.062Z,16.70
2023-02-13T03:42:35.701Z,22.00
2023-02-13T03:45:53.002Z,18.30
2023-02-13T03:49:00.656Z,16.52
2023-02-13T03:51:51.883Z,18.40
2023-02-13T03:55:02.902Z,15.40
2023-02-13T03:58:10.768Z,23.23
2023-02-13T04:01:01.073Z,16.02
2023-02-13T04:04:01.508Z,21.80
2023-02-13T04:06:58.174Z,17.08
2023-02-13T04:09:43.725Z,18.13
2023-02-13T04:12:37.895Z,15.05
2023-02-13T04:15:30.367Z,18.88
2023-02-13T04:18:31.396Z,17.58
2023-02-13T04:21:16.688Z,20.33
2023-02-13T04:24:02.114Z,24.83
2023-02-13T04:26:47.476Z,19.92
2023-02-13T04:29:32.993Z,22.52
2023-02-13T04:32:18.788Z,22.75
2023-02-13T04:35:04.452Z,19.15
2023-02-13T04:37:50.398Z,15.25
2023-02-13T04:40:36.037Z,17.00
2023-02-13T04:43:22.072Z,22.58
2023-02-13T04:46:07.837Z,15.70
2023-02-13T04:48:53.093Z,28.85
2023-02-13T04:51:38.575Z,13.98
2023-02-13T04:54:23.803Z,19.10
2023-02-13T04:57:09.123Z,14.55
2023-02-13T04:59:54.721Z,14.75
2023-02-13T05:02:40.104Z,13.55
2023-02-13T05:05:25.681Z,16.55
2023-02-13T05:08:11.031Z,16.58
2023-02-13T05:10:56.789Z,20.52
2023-02-13T05:13:42.204Z,15.95
2023-02-13T05:16:27.604Z,18.15
2023-02-13T05:19:13.250Z,13.77
2023-02-13T05:22:17.229Z,18.52
2023-02-13T05:25:02.818Z,20.23
2023-02-13T05:27:48.348Z,18.88
2023-02-13T05:30:33.674Z,18.45
2023-02-13T05:33:19.085Z,18.98
2023-02-13T05:36:04.945Z,18.20
2023-02-13T05:38:50.117Z,20.88
2023-02-13T05:41:35.588Z,14.10
2023-02-13T05:44:20.861Z,23.80
2023-02-13T05:47:06.434Z,14.90
2023-02-13T05:49:52.154Z,15.50
2023-02-13T05:52:37.433Z,15.65
2023-02-13T05:55:22.894Z,16.05
2023-02-13T05:58:09.659Z,20.65
2023-02-13T06:01:00.796Z,18.35
2023-02-13T06:03:46.597Z,29.70
2023-02-13T06:06:32.058Z,18.13
2023-02-13T06:09:17.487Z,14.10
2023-02-13T06:12:03.051Z,17.10
2023-02-13T06:14:48.449Z,14.57
2023-02-13T06:17:33.695Z,22.33
2023-02-13T06:20:19.361Z,13.90
2023-02-13T06:23:05.060Z,22.70
2023-02-13T06:25:50.618Z,15.55
2023-02-13T06:28:36.940Z,17.35
2023-02-13T06:31:22.934Z,18.17
2023-02-13T06:34:08.612Z,19.08
2023-02-13T06:36:54.025Z,13.55
2023-02-13T06:39:39.488Z,14.63
2023-02-13T06:42:24.963Z,16.15
2023-02-13T06:45:13.639Z,21.92
2023-02-13T06:47:59.264Z,17.15
2023-02-13T06:50:44.564Z,9.80
2023-02-13T06:53:30.402Z,17.45
2023-02-13T06:56:15.678Z,26.92
2023-02-13T06:59:01.163Z,18.95
2023-02-13T07:01:47.057Z,15.02
2023-02-13T07:04:32.430Z,19.50
2023-02-13T07:07:17.788Z,18.85
2023-02-13T07:10:04.454Z,16.05
2023-02-13T07:13:00.274Z,18.58
2023-02-13T07:15:50.577Z,23.38
2023-02-13T07:18:37.589Z,18.58
2023-02-13T07:21:23.752Z,26.35
2023-02-13T07:24:10.578Z,16.60
2023-02-13T07:26:55.891Z,16.42
2023-02-13T07:29:41.294Z,16.85
2023-02-13T07:32:26.582Z,14.65
2023-02-13T07:35:12.454Z,11.18
2023-02-13T07:37:57.935Z,17.45
2023-02-13T07:40:43.534Z,16.95
2023-02-13T07:43:29.833Z,14.07
2023-02-13T07:46:15.477Z,15.40
2023-02-13T07:49:01.280Z,15.32
2023-02-13T07:51:47.173Z,14.60
2023-02-13T07:54:32.702Z,18.65
2023-02-13T07:57:18.419Z,17.05
2023-02-13T08:00:04.075Z,21.73
2023-02-13T08:03:01.297Z,14.93
2023-02-13T08:05:49.392Z,15.65
2023-02-13T08:08:35.822Z,21.13
2023-02-13T08:11:50.206Z,15.23
2023-02-13T08:14:35.847Z,18.02
2023-02-13T08:17:21.362Z,14.20
2023-02-13T08:20:09.221Z,16.83
2023-02-13T08:22:54.813Z,18.85
2023-02-13T08:25:40.700Z,16.95
2023-02-13T08:28:26.016Z,20.10
2023-02-13T08:31:13.062Z,23.02
2023-02-13T08:33:58.540Z,15.77
2023-02-13T08:36:44.333Z,28.90
2023-02-13T08:39:29.976Z,18.20
2023-02-13T08:42:16.322Z,19.30
2023-02-13T08:45:01.872Z,20.55
2023-02-13T08:47:47.385Z,23.27
2023-02-13T08:50:32.647Z,18.50
2023-02-13T08:53:18.021Z,15.77
2023-02-13T08:56:04.218Z,19.52
2023-02-13T08:58:50.359Z,18.88
2023-02-13T09:01:36.129Z,22.60
2023-02-13T09:04:21.732Z,22.98
2023-02-13T09:07:07.108Z,22.88
2023-02-13T09:09:52.385Z,25.33
2023-02-13T09:12:38.039Z,24.33
2023-02-13T09:15:23.879Z,27.13
2023-02-13T09:18:09.471Z,33.55
2023-02-13T09:21:03.769Z,19.48
2023-02-13T09:23:51.582Z,23.17
2023-02-13T09:26:37.529Z,18.70
2023-02-13T09:29:22.974Z,26.25
2023-02-13T09:32:08.794Z,21.25
2023-02-13T09:34:54.311Z,21.77
2023-02-13T09:37:39.904Z,24.58
2023-02-13T09:40:35.686Z,21.55
2023-02-13T09:43:41.510Z,21.42
2023-02-13T09:46:39.072Z,24.02
2023-02-13T09:49:28.236Z,24.48
2023-02-13T09:52:13.620Z,20.20
2023-02-13T09:54:59.182Z,28.80
2023-02-13T09:57:55.316Z,21.95
2023-02-13T10:00:44.764Z,23.67
2023-02-13T10:03:38.158Z,21.73
2023-02-13T10:06:49.942Z,20.20
2023-02-13T10:09:51.374Z,18.20
2023-02-13T10:12:52.956Z,23.77
2023-02-13T10:15:49.699Z,19.02
2023-02-13T10:18:42.389Z,24.98
2023-02-13T10:21:36.435Z,24.80
2023-02-13T10:24:40.557Z,24.23
2023-02-13T10:27:32.739Z,18.40
2023-02-13T10:30:26.653Z,21.85
2023-02-13T10:33:21.261Z,21.75
2023-02-13T10:36:09.518Z,19.85
2023-02-13T10:39:13.005Z,23.00
2023-02-13T10:42:04.614Z,21.23
2023-02-13T10:45:06.891Z,24.88
2023-02-13T10:51:19.516Z,25.27
2023-02-13T10:54:25.397Z,18.75
2023-02-13T10:57:36.559Z,19.88
2023-02-13T11:00:48.682Z,22.52
2023-02-13T11:03:34.158Z,23.25
2023-02-13T11:06:20.375Z,22.50
2023-02-13T11:09:09.809Z,25.67
2023-02-13T11:11:55.562Z,29.02
2023-02-13T11:14:58.132Z,24.52
2023-02-13T11:20:44.560Z,21.00
2023-02-13T11:23:30.710Z,26.52
2023-02-13T11:26:28.136Z,24.63
2023-02-13T11:29:22.575Z,21.45
2023-02-13T11:32:14.234Z,22.75
2023-02-13T11:35:26.314Z,22.90
2023-02-13T11:38:18.180Z,27.27
2023-02-13T11:41:11.657Z,20.85
2023-02-13T11:44:04.400Z,24.52
2023-02-13T11:46:52.341Z,29.27
2023-02-13T11:49:39.636Z,23.88
2023-02-13T11:52:29.790Z,24.83
2023-02-13T11:55:29.568Z,23.25
2023-02-13T11:58:14.832Z,19.52
2023-02-13T12:01:21.461Z,23.95
2023-02-13T12:04:27.820Z,21.08
2023-02-13T12:07:21.166Z,18.23
2023-02-13T12:10:19.240Z,23.05
2023-02-13T12:13:30.065Z,23.27
2023-02-13T12:16:28.952Z,20.23
2023-02-13T12:19:22.195Z,24.10
2023-02-13T12:22:07.783Z,23.13
2023-02-13T12:25:02.330Z,21.77
2023-02-13T12:28:12.811Z,20.88
2023-02-13T12:31:33.764Z,19.83
2023-02-13T12:34:30.920Z,20.58
2023-02-13T12:37:19.504Z,23.88
2023-02-13T12:40:24.733Z,23.05
2023-02-13T12:43:10.188Z,21.52
2023-02-13T12:46:01.771Z,22.42
2023-02-13T12:49:17.790Z,29.03
2023-02-13T12:52:47.217Z,26.95
2023-02-13T12:56:09.023Z,24.08
2023-02-13T12:59:07.208Z,21.05
2023-02-13T13:02:13.817Z,23.13
2023-02-13T13:05:45.274Z,23.63
2023-02-13T13:08:44.516Z,19.65
2023-02-13T13:11:48.202Z,23.10
2023-02-13T13:14:54.243Z,25.02
2023-02-13T13:18:04.640Z,18.90
2023-02-13T13:21:02.253Z,24.50
2023-02-13T13:24:15.738Z,23.67
2023-02-13T13:27:03.494Z,18.50
2023-02-13T13:29:56.187Z,21.63
2023-02-13T13:32:44.082Z,21.40
2023-02-13T13:35:31.586Z,23.48
2023-02-13T13:38:46.434Z,20.65
2023-02-13T13:41:44.923Z,20.67
2023-02-13T13:44:36.740Z,17.08
2023-02-13T13:47:26.692Z,20.75
2023-02-13T13:50:33.537Z,23.20
2023-02-13T13:53:23.398Z,21.90
2023-02-13T13:56:09.564Z,21.40
2023-02-13T13:58:56.750Z,19.63
2023-02-13T14:01:42.364Z,23.88
2023-02-13T14:04:34.532Z,19.42
2023-02-13T14:07:24.628Z,29.95
2023-02-13T14:10:23.624Z,18.70
2023-02-13T14:13:09.052Z,18.70
2023-02-13T14:15:55.225Z,15.30
2023-02-13T14:18:46.829Z,30.08
2023-02-13T14:21:32.516Z,18.92
2023-02-13T14:24:20.586Z,18.73
2023-02-13T14:27:06.451Z,27.77
2023-02-13T14:29:52.162Z,27.83
2023-02-13T14:32:41.147Z,21.75
2023-02-13T14:35:31.232Z,23.85
2023-02-13T14:38:25.664Z,17.27
2023-02-13T14:41:43.117Z,20.48
2023-02-13T14:44:49.524Z,23.45
2023-02-13T14:47:42.994Z,26.25
2023-02-13T14:50:32.810Z,20.50
2023-02-13T14:53:25.317Z,23.02
2023-02-13T14:56:18.975Z,21.48
2023-02-13T14:59:17.890Z,21.88
2023-02-13T15:02:17.459Z,26.15
2023-02-13T15:05:16.075Z,19.40
2023-02-13T15:08:21.174Z,18.25
2023-02-13T15:11:26.566Z,21.90
2023-02-13T15:14:36.938Z,25.50
2023-02-13T15:17:40.120Z,18.40
2023-02-13T15:20:30.406Z,22.55
2023-02-13T15:23:28.815Z,23.88
2023-02-13T15:26:22.770Z,22.95
2023-02-13T15:29:35.287Z,17.67
2023-02-13T15:32:38.903Z,17.42
2023-02-13T15:35:31.201Z,20.65
2023-02-13T15:38:28.892Z,28.40
2023-02-13T15:41:24.799Z,20.50
2023-02-13T15:44:18.945Z,28.20
2023-02-13T15:47:10.135Z,21.55
2023-02-13T15:49:55.893Z,27.75
2023-02-13T15:52:42.377Z,32.08
2023-02-13T15:55:30.626Z,34.90
2023-02-13T15:58:16.382Z,24.23
2023-02-13T16:01:07.009Z,29.92
2023-02-13T16:04:08.845Z,22.33
2023-02-13T16:06:56.060Z,28.00
2023-02-13T16:09:42.011Z,27.17
2023-02-13T16:12:28.956Z,26.10
2023-02-13T16:15:21.495Z,25.00
2023-02-13T16:18:20.085Z,28.52
2023-02-13T16:21:07.979Z,27.95
2023-02-13T16:24:16.300Z,25.02
2023-02-13T16:27:01.610Z,30.08
2023-02-13T16:29:58.856Z,28.33
2023-02-13T16:32:44.422Z,28.67
2023-02-13T16:35:35.747Z,33.38
2023-02-13T16:38:38.524Z,26.10
2023-02-13T16:44:23.204Z,24.55
2023-02-13T16:47:22.393Z,27.85
2023-02-13T16:50:16.643Z,31.88
2023-02-13T16:53:04.261Z,25.00
2023-02-13T16:55:59.489Z,36.35
2023-02-13T16:58:44.976Z,32.22
2023-02-13T17:01:30.692Z,30.35
2023-02-13T17:04:25.133Z,30.60
2023-02-13T17:07:16.830Z,28.17
2023-02-13T17:10:17.436Z,32.50
2023-02-13T17:13:17.805Z,26.50
2023-02-13T17:16:03.355Z,41.72
2023-02-13T17:18:48.636Z,35.80
2023-02-13T17:21:34.621Z,31.60
2023-02-13T17:24:19.886Z,34.25
2023-02-13T17:27:05.430Z,33.90
2023-02-13T17:29:50.667Z,36.08
2023-02-13T17:32:36.991Z,43.83
2023-02-13T17:35:22.685Z,46.08
2023-02-13T17:38:10.155Z,38.95
2023-02-13T17:40:55.552Z,42.95
2023-02-13T17:43:41.306Z,50.05
2023-02-13T17:46:27.032Z,48.05
2023-02-13T17:49:12.749Z,48.80
2023-02-13T17:51:58.335Z,44.22
2023-02-13T17:54:44.431Z,51.38
2023-02-13T17:57:30.094Z,44.33
2023-02-13T18:00:16.092Z,40.35
2023-02-13T18:03:01.940Z,35.90
2023-02-13T18:05:49.284Z,39.78
2023-02-13T18:08:34.870Z,31.63
2023-02-13T18:11:20.207Z,46.55
2023-02-13T18:14:05.403Z,65.32
2023-02-13T18:16:50.769Z,77.88
2023-02-13T18:19:37.508Z,93.88
2023-02-13T18:22:23.045Z,53.00
2023-02-13T18:25:09.811Z,66.72
2023-02-13T18:27:55.484Z,39.22
2023-02-13T18:30:44.290Z,52.78
2023-02-13T18:33:30.095Z,57.03
2023-02-13T18:36:15.523Z,63.80
2023-02-13T18:39:00.810Z,53.42
2023-02-13T18:41:46.320Z,50.28
2023-02-13T18:44:32.552Z,46.55
2023-02-13T18:47:18.322Z,39.72
2023-02-13T18:50:04.919Z,44.35
2023-02-13T18:52:50.344Z,62.65
2023-02-13T18:55:36.141Z,43.47
2023-02-13T18:58:21.694Z,59.35
2023-02-13T19:01:18.211Z,51.05
2023-02-13T19:04:04.960Z,44.92
2023-02-13T19:06:50.680Z,47.17
2023-02-13T19:09:40.439Z,40.38
2023-02-13T19:12:26.382Z,47.30
2023-02-13T19:15:12.073Z,45.78
2023-02-13T19:17:57.587Z,52.90
2023-02-13T19:20:44.003Z,51.40
2023-02-13T19:23:29.528Z,47.25
2023-02-13T19:26:18.231Z,60.05
2023-02-13T19:29:04.414Z,98.22
2023-02-13T19:31:49.742Z,73.43
2023-02-13T19:34:35.012Z,75.53
2023-02-13T19:37:20.312Z,75.75
2023-02-13T19:40:06.421Z,65.75
2023-02-13T19:42:51.742Z,62.30
2023-02-13T19:45:36.959Z,52.10
2023-02-13T19:48:22.275Z,54.28
2023-02-13T19:51:08.501Z,43.78
2023-02-13T19:54:05.594Z,60.63
2023-02-13T19:56:51.186Z,68.93
2023-02-13T19:59:36.624Z,69.25
2023-02-13T20:02:22.494Z,58.67
2023-02-13T20:05:09.045Z,44.85
2023-02-13T20:07:54.624Z,52.65
2023-02-13T20:10:45.015Z,42.83
2023-02-13T20:13:32.097Z,45.20
2023-02-13T20:16:18.619Z,51.38
2023-02-13T20:19:11.559Z,42.28
2023-02-13T20:21:57.103Z,46.25
2023-02-13T20:24:43.498Z,54.72
2023-02-13T20:27:29.079Z,50.65
2023-02-13T20:30:15.926Z,47.85
2023-02-13T20:33:01.136Z,51.88
2023-02-13T20:35:46.681Z,61.85
2023-02-13T20:38:32.235Z,38.85
2023-02-13T20:41:19.844Z,47.70
2023-02-13T20:44:12.282Z,36.28
2023-02-13T20:46:58.395Z,36.38
2023-02-13T20:49:44.958Z,34.10
2023-02-13T20:52:30.599Z,34.70
2023-02-13T20:55:15.984Z,48.65
2023-02-13T20:58:01.645Z,35.22
2023-02-13T21:00:47.128Z,27.00
2023-02-13T21:03:32.836Z,28.38
2023-02-13T21:06:18.315Z,31.90
2023-02-13T21:09:05.383Z,32.45
2023-02-13T21:11:51.054Z,26.85
2023-02-13T21:14:36.554Z,22.30
2023-02-13T21:17:22.123Z,24.83
2023-02-13T21:20:08.155Z,17.15
2023-02-13T21:22:54.568Z,26.75
2023-02-13T21:25:40.129Z,33.92
2023-02-13T21:28:25.421Z,20.02
2023-02-13T21:31:14.797Z,33.47
2023-02-13T21:34:03.265Z,41.38
2023-02-13T21:36:49.031Z,27.35
2023-02-13T21:39:36.364Z,22.60
2023-02-13T21:42:21.589Z,28.52
2023-02-13T21:45:07.373Z,20.80
2023-02-13T21:47:56.632Z,22.50
2023-02-13T21:50:42.089Z,23.23
2023-02-13T21:53:27.434Z,20.60
2023-02-13T21:56:16.031Z,24.85
2023-02-13T21:59:01.559Z,21.77
2023-02-13T22:02:02.898Z,23.95
2023-02-13T22:04:48.208Z,25.88
2023-02-13T22:07:53.690Z,20.02
2023-02-13T22:10:39.472Z,24.90
2023-02-13T22:13:25.880Z,27.73
2023-02-13T22:16:13.524Z,27.75
2023-02-13T22:18:59.888Z,27.75
2023-02-13T22:21:45.446Z,19.38
2023-02-13T22:24:30.989Z,30.30
2023-02-13T22:27:16.429Z,25.70
2023-02-13T22:30:02.060Z,26.88
2023-02-13T22:32:47.837Z,24.98
2023-02-13T22:35:38.007Z,22.27
2023-02-13T22:38:23.528Z,24.52
2023-02-13T22:41:11.823Z,26.05
2023-02-13T22:43:57.696Z,28.13
2023-02-13T22:46:45.357Z,29.35
2023-02-13T22:49:30.586Z,24.73
2023-02-13T22:52:16.193Z,26.77
2023-02-13T22:55:01.876Z,29.38
2023-02-13T22:57:48.518Z,27.10
2023-02-13T23:00:33.859Z,26.42
2023-02-13T23:03:19.787Z,28.67
2023-02-13T23:06:07.194Z,46.17
2023-02-13T23:08:53.864Z,28.85
2023-02-13T23:11:57.915Z,31.13
2023-02-13T23:14:52.143Z,25.13
2023-02-13T23:17:56.684Z,26.40
2023-02-13T23:20:43.970Z,29.35
2023-02-13T23:23:29.623Z,26.05
2023-02-13T23:26:15.802Z,34.05
2023-02-13T23:29:01.176Z,26.92
2023-02-13T23:31:46.664Z,26.60
2023-02-13T23:34:35.139Z,26.35
2023-02-13T23:37:20.802Z,30.42
2023-02-13T23:40:07.201Z,26.38
2023-02-13T23:42:52.390Z,27.52
2023-02-13T23:45:38.396Z,29.33
2023-02-13T23:48:24.048Z,33.97
2023-02-13T23:51:09.783Z,30.77
2023-02-13T23:53:57.385Z,39.45
2023-02-13T23:56:43.779Z,31.83
2023-02-13T23:59:29.401Z,33.50
